Skip Navigation LinksHome page > Weather > Current weather Skip Navigation Links

Current Weather

William P Hobby, Houston

For information only: do not use for flight planning or navigation.
Latest weather
Observation time Sunday, May 26, 2019 9:53 AM CDT
Local time Sunday, May 26, 2019 10:35 AM CDT
Flight conditions Visual Meteorological Conditions
Winds
Wind direction South-Southeast (160°)
Wind speed 14 mph
Wind gusting to 22 mph
Visibility 10 mi.
Sky condition
Ceiling unlimited
Cloud layer scattered clouds 3,200 ft.
Cloud layer scattered clouds 25,000 ft.
Temperature 84°F
Dewpoint 68°F
Altimeter 30.08 in.Hg
Pressure change last 3 hours-0.03 in.Hg
Pressure rising more slowly
Derived measurements
Relative humidity 59%
Heat index 87°F
Density altitude 1779 ft.
Sea-level pressure 30.10 in.Hg
Remarks
System requires maintenance.
Automated weather observing station with precipitation discriminator.
METAR KHOU 261453Z 16012G19KT 10SM SCT032 SCT250 29/20 A3008 RMK AO2 SLP192 T02890200 51009 $

Settings

Location code

InnerDrive.Weather 4.0.6770.0 Release CLR 4.0.30319.42000
Copyright ©2018 Inner Drive Technology. All rights reserved. Portions Copyright ©1986-2018 David Braverman.

Find weather

Site navigation


Skip Navigation Links

Place info

Page info

PayPal - The safer, easier way to pay online!

Return home.

Copyright ©2019 Inner Drive Technology. Purveyors of fine, hand-crafted computer software. Page printed 2019-05-26T15:35:44 UTC.